createdAt,value
2022-08-07T00:00:46.309Z,1002.22
2022-08-07T00:02:37.155Z,1002.19
2022-08-07T00:02:46.332Z,1002.22
2022-08-07T00:03:47.430Z,1002.28
2022-08-07T00:04:45.475Z,1002.31
2022-08-07T00:05:45.276Z,1002.29
2022-08-07T00:06:51.929Z,1002.25
2022-08-07T00:07:46.253Z,1002.27
2022-08-07T00:08:45.243Z,1002.25
2022-08-07T00:10:04.700Z,1002.27
2022-08-07T00:10:48.095Z,1002.31
2022-08-07T00:11:54.476Z,1002.26
2022-08-07T00:12:59.708Z,1002.24
2022-08-07T00:13:46.206Z,1002.24
2022-08-07T00:14:45.195Z,1002.24
2022-08-07T00:15:46.774Z,1002.27
2022-08-07T00:16:46.185Z,1002.18
2022-08-07T00:17:45.171Z,1002.17
2022-08-07T00:18:45.170Z,1002.19
2022-08-07T00:20:02.619Z,1002.19
2022-08-07T00:20:46.149Z,1002.20
2022-08-07T00:21:55.547Z,1002.18
2022-08-07T00:22:51.545Z,1002.20
2022-08-07T00:23:46.133Z,1002.16
2022-08-07T00:24:45.121Z,1002.20
2022-08-07T00:25:45.828Z,1002.24
2022-08-07T00:26:58.927Z,1002.18
2022-08-07T00:27:52.136Z,1002.22
2022-08-07T00:28:56.619Z,1002.17
2022-08-07T00:29:46.079Z,1002.17
2022-08-07T00:30:45.089Z,1002.18
2022-08-07T00:32:45.549Z,1002.09
2022-08-07T00:33:47.620Z,1002.05
2022-08-07T00:34:45.534Z,1002.01
2022-08-07T00:35:49.693Z,1002.03
2022-08-07T00:36:46.613Z,1002.01
2022-08-07T00:37:47.973Z,1002.03
2022-08-07T00:38:46.608Z,1002.06
2022-08-07T00:39:46.601Z,1002.04
2022-08-07T00:40:47.587Z,1002.05
2022-08-07T00:41:53.819Z,1002.05
2022-08-07T00:42:47.570Z,1002.08
2022-08-07T00:44:01.309Z,1002.03
2022-08-07T00:44:47.547Z,1002.03
2022-08-07T00:45:46.723Z,1002.02
2022-08-07T00:46:46.533Z,1001.97
2022-08-07T00:48:08.866Z,1001.98
2022-08-07T00:48:49.995Z,1001.94
2022-08-07T00:50:19.825Z,1001.98
2022-08-07T00:50:51.537Z,1001.97
2022-08-07T00:51:57.538Z,1002.02
2022-08-07T00:52:47.707Z,1002.00
2022-08-07T00:53:50.640Z,1002.03
2022-08-07T00:54:47.492Z,1001.96
2022-08-07T00:56:03.301Z,1002.02
2022-08-07T00:56:49.797Z,1001.99
2022-08-07T00:57:55.764Z,1001.93
2022-08-07T00:58:49.859Z,1001.99
2022-08-07T00:59:47.426Z,1002.01
2022-08-07T01:00:53.923Z,1002.00
2022-08-07T01:01:48.488Z,1001.92
2022-08-07T01:02:46.403Z,1001.93
2022-08-07T01:03:55.928Z,1001.90
2022-08-07T01:04:47.391Z,1001.86
2022-08-07T01:05:51.630Z,1001.89
2022-08-07T01:06:47.373Z,1001.89
2022-08-07T01:07:46.366Z,1001.87
2022-08-07T01:08:53.775Z,1001.85
2022-08-07T01:10:05.988Z,1001.92
2022-08-07T01:10:47.648Z,1001.88
2022-08-07T01:12:27.536Z,1001.84
2022-08-07T01:12:54.078Z,1001.87
2022-08-07T01:13:55.916Z,1001.84
2022-08-07T01:14:47.303Z,1001.87
2022-08-07T01:16:00.781Z,1001.86
2022-08-07T01:16:48.105Z,1001.83
2022-08-07T01:17:46.302Z,1001.81
2022-08-07T01:18:46.279Z,1001.82
2022-08-07T01:19:54.390Z,1001.80
2022-08-07T01:20:57.219Z,1001.85
2022-08-07T01:21:47.256Z,1001.85
2022-08-07T01:22:47.001Z,1001.85
2022-08-07T01:23:47.231Z,1001.81
2022-08-07T01:24:47.484Z,1001.83
2022-08-07T01:25:55.222Z,1001.87
2022-08-07T01:26:47.905Z,1001.76
2022-08-07T01:27:50.040Z,1001.80
2022-08-07T01:28:48.360Z,1001.76
2022-08-07T01:29:46.188Z,1001.81
2022-08-07T01:30:47.031Z,1001.90
2022-08-07T01:31:48.359Z,1001.84
2022-08-07T01:32:46.171Z,1001.85
2022-08-07T01:33:56.068Z,1001.82
2022-08-07T01:34:49.147Z,1001.81
2022-08-07T01:35:53.239Z,1001.82
2022-08-07T01:36:52.735Z,1001.76
2022-08-07T01:37:47.128Z,1001.79
2022-08-07T01:38:46.112Z,1001.78
2022-08-07T01:39:46.876Z,1001.79
2022-08-07T01:40:46.094Z,1001.85
2022-08-07T01:42:07.623Z,1001.81
2022-08-07T01:42:57.524Z,1001.78
2022-08-07T01:43:47.076Z,1001.74
2022-08-07T01:44:47.867Z,1001.77
2022-08-07T01:45:46.560Z,1001.78
2022-08-07T01:46:46.047Z,1001.77
2022-08-07T01:48:20.069Z,1001.74
2022-08-07T01:48:47.599Z,1001.71
2022-08-07T01:49:46.029Z,1001.70
2022-08-07T01:50:46.022Z,1001.71
2022-08-07T01:52:02.301Z,1001.76
2022-08-07T01:52:49.385Z,1001.69
2022-08-07T01:54:09.428Z,1001.69
2022-08-07T01:54:46.987Z,1001.71
2022-08-07T01:55:45.983Z,1001.71
2022-08-07T01:56:49.362Z,1001.71
2022-08-07T01:58:01.259Z,1001.72
2022-08-07T01:58:46.950Z,1001.73
2022-08-07T01:59:45.950Z,1001.73
2022-08-07T02:00:49.994Z,1001.73
2022-08-07T02:01:59.646Z,1001.78
2022-08-07T02:03:19.177Z,1001.77
2022-08-07T02:03:50.143Z,1001.76
2022-08-07T02:04:52.584Z,1001.76
2022-08-07T02:05:59.398Z,1001.77
2022-08-07T02:06:46.882Z,1001.78
2022-08-07T02:07:50.463Z,1001.75
2022-08-07T02:08:46.863Z,1001.78
2022-08-07T02:09:52.796Z,1001.77
2022-08-07T02:10:48.768Z,1001.79
2022-08-07T02:12:04.032Z,1001.74
2022-08-07T02:12:50.073Z,1001.81
2022-08-07T02:13:57.512Z,1001.80
2022-08-07T02:14:46.815Z,1001.73
2022-08-07T02:15:45.806Z,1001.78
2022-08-07T02:16:45.802Z,1001.76
2022-08-07T02:17:49.576Z,1001.77
2022-08-07T02:18:47.252Z,1001.75
2022-08-07T02:20:05.846Z,1001.67
2022-08-07T02:20:48.706Z,1001.73
2022-08-07T02:21:56.224Z,1001.74
2022-08-07T02:22:46.748Z,1001.75
2022-08-07T02:23:46.744Z,1001.76
2022-08-07T02:24:45.748Z,1001.75
2022-08-07T02:26:31.973Z,1001.73
2022-08-07T02:26:46.716Z,1001.78
2022-08-07T02:27:51.910Z,1001.79
2022-08-07T02:28:46.700Z,1001.77
2022-08-07T02:29:50.921Z,1001.73
2022-08-07T02:30:46.676Z,1001.74
2022-08-07T02:31:45.679Z,1001.76
2022-08-07T02:33:00.581Z,1001.78
2022-08-07T02:34:03.295Z,1001.74
2022-08-07T02:34:48.971Z,1001.73
2022-08-07T02:36:30.727Z,1001.71
2022-08-07T02:36:46.628Z,1001.70
2022-08-07T02:37:45.626Z,1001.66
2022-08-07T02:38:50.868Z,1001.68
2022-08-07T02:40:02.526Z,1001.64
2022-08-07T02:40:46.785Z,1001.71
2022-08-07T02:41:50.499Z,1001.71
2022-08-07T02:42:46.577Z,1001.73
2022-08-07T02:43:48.935Z,1001.71
2022-08-07T02:44:45.775Z,1001.77
2022-08-07T02:46:00.593Z,1001.75
2022-08-07T02:46:52.506Z,1001.71
2022-08-07T02:47:49.139Z,1001.77
2022-08-07T02:48:47.055Z,1001.73
2022-08-07T02:49:57.993Z,1001.71
2022-08-07T02:50:46.523Z,1001.74
2022-08-07T02:51:51.835Z,1001.72
2022-08-07T02:52:48.702Z,1001.74
2022-08-07T02:53:45.498Z,1001.74
2022-08-07T02:54:45.484Z,1001.71
2022-08-07T02:56:02.662Z,1001.70
2022-08-07T02:56:46.466Z,1001.69
2022-08-07T02:57:46.727Z,1001.75
2022-08-07T02:58:47.350Z,1001.70
2022-08-07T02:59:45.449Z,1001.67
2022-08-07T03:00:47.525Z,1001.69
2022-08-07T03:01:47.260Z,1001.69
2022-08-07T03:02:54.444Z,1001.71
2022-08-07T03:03:50.570Z,1001.72
2022-08-07T03:04:45.398Z,1001.72
2022-08-07T03:05:45.410Z,1001.71
2022-08-07T03:06:45.871Z,1001.69
2022-08-07T03:08:07.598Z,1001.66
2022-08-07T03:08:46.367Z,1001.66
2022-08-07T03:09:48.241Z,1001.62
2022-08-07T03:10:47.369Z,1001.61
2022-08-07T03:11:52.123Z,1001.61
2022-08-07T03:12:46.335Z,1001.60
2022-08-07T03:13:49.660Z,1001.59
2022-08-07T03:14:48.398Z,1001.64
2022-08-07T03:15:56.716Z,1001.64
2022-08-07T03:16:46.300Z,1001.64
2022-08-07T03:17:53.955Z,1001.66
2022-08-07T03:18:46.285Z,1001.55
2022-08-07T03:19:45.276Z,1001.65
2022-08-07T03:20:46.285Z,1001.71
2022-08-07T03:21:50.318Z,1001.63
2022-08-07T03:22:50.368Z,1001.63
2022-08-07T03:24:19.443Z,1001.59
2022-08-07T03:24:46.232Z,1001.69
2022-08-07T03:25:45.226Z,1001.66
2022-08-07T03:26:51.230Z,1001.67
2022-08-07T03:28:09.371Z,1001.64
2022-08-07T03:28:46.204Z,1001.63
2022-08-07T03:29:49.645Z,1001.68
2022-08-07T03:30:46.180Z,1001.64
2022-08-07T03:31:46.376Z,1001.65
2022-08-07T03:32:48.994Z,1001.62
2022-08-07T03:33:46.151Z,1001.64
2022-08-07T03:34:47.598Z,1001.60
2022-08-07T03:35:50.543Z,1001.59
2022-08-07T03:36:45.136Z,1001.65
2022-08-07T03:37:46.220Z,1001.65
2022-08-07T03:38:46.116Z,1001.63
2022-08-07T03:39:59.316Z,1001.57
2022-08-07T03:40:46.217Z,1001.62
2022-08-07T03:41:47.475Z,1001.60
2022-08-07T03:42:45.094Z,1001.65
2022-08-07T03:43:57.096Z,1001.61
2022-08-07T03:44:47.098Z,1001.60
2022-08-07T03:45:47.794Z,1001.61
2022-08-07T03:47:10.837Z,1001.58
2022-08-07T03:47:47.842Z,1001.57
2022-08-07T03:49:01.973Z,1001.54
2022-08-07T03:49:51.940Z,1001.60
2022-08-07T03:50:55.844Z,1001.67
2022-08-07T03:51:47.244Z,1001.63
2022-08-07T03:52:45.007Z,1001.60
2022-08-07T03:54:05.915Z,1001.59
2022-08-07T03:54:54.444Z,1001.60
2022-08-07T03:55:58.365Z,1001.59
2022-08-07T03:57:07.089Z,1001.65
2022-08-07T03:58:33.650Z,1001.63
2022-08-07T03:59:09.283Z,1001.60
2022-08-07T03:59:46.481Z,1001.62
2022-08-07T04:00:46.480Z,1001.65
2022-08-07T04:01:45.728Z,1001.64
2022-08-07T04:02:47.334Z,1001.65
2022-08-07T04:03:53.407Z,1001.64
2022-08-07T04:04:45.905Z,1001.63
2022-08-07T04:05:45.590Z,1001.61
2022-08-07T04:06:44.884Z,1001.59
2022-08-07T04:07:45.239Z,1001.56
2022-08-07T04:08:44.871Z,1001.56
2022-08-07T04:09:50.525Z,1001.58
2022-08-07T04:10:54.427Z,1001.61
2022-08-07T04:12:25.455Z,1001.59
2022-08-07T04:12:46.470Z,1001.56
2022-08-07T04:14:09.451Z,1001.60
2022-08-07T04:14:47.787Z,1001.63
2022-08-07T04:15:45.598Z,1001.58
2022-08-07T04:16:58.338Z,1001.60
2022-08-07T04:18:58.500Z,1001.61
2022-08-07T04:19:01.406Z,1001.60
2022-08-07T04:19:52.764Z,1001.58
2022-08-07T04:20:54.603Z,1001.55
2022-08-07T04:21:59.479Z,1001.62
2022-08-07T04:22:53.419Z,1001.61
2022-08-07T04:24:04.480Z,1001.63
2022-08-07T04:24:45.746Z,1001.66
2022-08-07T04:25:44.739Z,1001.62
2022-08-07T04:26:44.724Z,1001.68
2022-08-07T04:27:46.075Z,1001.73
2022-08-07T04:28:45.710Z,1001.66
2022-08-07T04:29:58.538Z,1001.69
2022-08-07T04:30:56.902Z,1001.66
2022-08-07T04:32:03.052Z,1001.69
2022-08-07T04:32:47.872Z,1001.57
2022-08-07T04:33:44.671Z,1001.66
2022-08-07T04:34:44.671Z,1001.60
2022-08-07T04:35:44.649Z,1001.71
2022-08-07T04:36:48.691Z,1001.76
2022-08-07T04:38:03.368Z,1001.65
2022-08-07T04:38:46.562Z,1001.71
2022-08-07T04:39:47.922Z,1001.71
2022-08-07T04:40:51.887Z,1001.71
2022-08-07T04:41:50.464Z,1001.69
2022-08-07T04:42:45.602Z,1001.66
2022-08-07T04:44:12.654Z,1001.71
2022-08-07T04:45:02.723Z,1001.67
2022-08-07T04:46:00.979Z,1001.67
2022-08-07T04:46:59.639Z,1001.69
2022-08-07T04:47:58.887Z,1001.70
2022-08-07T04:48:45.556Z,1001.72
2022-08-07T04:49:47.362Z,1001.75
2022-08-07T04:50:52.810Z,1001.76
2022-08-07T04:51:45.530Z,1001.82
2022-08-07T04:52:51.237Z,1001.84
2022-08-07T04:54:02.016Z,1001.86
2022-08-07T04:54:50.356Z,1001.86
2022-08-07T04:58:10.152Z,1001.97
2022-08-07T04:58:11.027Z,1001.86
2022-08-07T04:58:12.540Z,1001.91
2022-08-07T05:00:12.833Z,1001.91
2022-08-07T05:00:45.516Z,1001.95
2022-08-07T05:01:44.443Z,1001.95
2022-08-07T05:02:44.441Z,1001.91
2022-08-07T05:04:07.064Z,1001.96
2022-08-07T05:04:50.169Z,1001.92
2022-08-07T05:05:52.155Z,1001.94
2022-08-07T05:06:51.351Z,1001.94
2022-08-07T05:07:45.458Z,1001.89
2022-08-07T05:08:59.519Z,1001.93
2022-08-07T05:09:46.970Z,1001.97
2022-08-07T05:10:44.368Z,1001.97
2022-08-07T05:11:57.333Z,1001.99
2022-08-07T05:12:46.314Z,1002.01
2022-08-07T05:14:55.529Z,1001.97
2022-08-07T05:14:55.622Z,1001.96
2022-08-07T05:15:45.323Z,1002.08
2022-08-07T05:16:45.410Z,1001.98
2022-08-07T05:17:52.203Z,1002.00
2022-08-07T05:18:45.295Z,1002.09
2022-08-07T05:19:45.087Z,1002.02
2022-08-07T05:20:44.366Z,1002.08
2022-08-07T05:22:00.093Z,1002.10
2022-08-07T05:22:45.258Z,1002.13
2022-08-07T05:23:44.252Z,1002.09
2022-08-07T05:24:44.255Z,1002.16
2022-08-07T05:26:12.899Z,1002.17
2022-08-07T05:26:46.234Z,1002.16
2022-08-07T05:28:02.554Z,1002.13
2022-08-07T05:28:48.540Z,1002.13
2022-08-07T05:29:50.985Z,1002.11
2022-08-07T05:30:47.145Z,1002.14
2022-08-07T05:31:47.471Z,1002.15
2022-08-07T05:32:45.180Z,1002.17
2022-08-07T05:34:01.090Z,1002.09
2022-08-07T05:34:45.165Z,1002.14
2022-08-07T05:35:44.160Z,1002.22
2022-08-07T05:36:44.154Z,1002.19
2022-08-07T05:37:45.139Z,1002.18
2022-08-07T05:39:00.981Z,1002.22
2022-08-07T05:40:13.877Z,1002.23
2022-08-07T05:40:51.365Z,1002.26
2022-08-07T05:42:01.194Z,1002.25
2022-08-07T05:42:55.958Z,1002.23
2022-08-07T05:44:08.472Z,1002.24
2022-08-07T05:44:46.764Z,1002.26
2022-08-07T05:45:46.499Z,1002.23
2022-08-07T05:46:44.074Z,1002.25
2022-08-07T05:48:01.596Z,1002.29
2022-08-07T05:48:58.354Z,1002.26
2022-08-07T05:49:45.043Z,1002.23
2022-08-07T05:50:44.044Z,1002.30
2022-08-07T05:51:46.213Z,1002.21
2022-08-07T05:52:44.034Z,1002.24
2022-08-07T05:54:12.611Z,1002.31
2022-08-07T05:54:55.706Z,1002.26
2022-08-07T05:56:02.014Z,1002.22
2022-08-07T05:56:44.988Z,1002.30
2022-08-07T05:57:44.873Z,1002.28
2022-08-07T05:58:49.261Z,1002.28
2022-08-07T05:59:55.720Z,1002.26
2022-08-07T06:00:46.308Z,1002.29
2022-08-07T06:01:45.004Z,1002.28
2022-08-07T06:02:43.943Z,1002.31
2022-08-07T06:03:56.627Z,1002.24
2022-08-07T06:04:44.935Z,1002.26
2022-08-07T06:05:48.895Z,1002.29
2022-08-07T06:06:46.244Z,1002.29
2022-08-07T06:08:12.339Z,1002.32
2022-08-07T06:08:45.155Z,1002.30
2022-08-07T06:09:56.594Z,1002.27
2022-08-07T06:10:44.998Z,1002.26
2022-08-07T06:11:43.871Z,1002.30
2022-08-07T06:12:43.857Z,1002.35
2022-08-07T06:14:13.174Z,1002.29
2022-08-07T06:14:49.453Z,1002.30
2022-08-07T06:15:45.316Z,1002.29
2022-08-07T06:16:43.827Z,1002.24
2022-08-07T06:17:53.383Z,1002.20
2022-08-07T06:18:51.569Z,1002.27
2022-08-07T06:19:57.880Z,1002.24
2022-08-07T06:20:50.955Z,1002.20
2022-08-07T06:22:16.971Z,1002.23
2022-08-07T06:22:50.677Z,1002.19
2022-08-07T06:23:46.826Z,1002.24
2022-08-07T06:24:58.159Z,1002.18
2022-08-07T06:25:54.095Z,1002.22
2022-08-07T06:26:45.588Z,1002.17
2022-08-07T06:28:00.904Z,1002.22
2022-08-07T06:28:44.732Z,1002.20
2022-08-07T06:29:43.721Z,1002.20
2022-08-07T06:30:45.977Z,1002.22
2022-08-07T06:31:50.028Z,1002.19
2022-08-07T06:32:43.711Z,1002.23
2022-08-07T06:33:43.694Z,1002.14
2022-08-07T06:34:45.363Z,1002.17
2022-08-07T06:35:45.534Z,1002.12
2022-08-07T06:36:44.670Z,1002.16
2022-08-07T06:37:44.755Z,1002.15
2022-08-07T06:38:59.433Z,1002.13
2022-08-07T06:40:17.434Z,1002.17
2022-08-07T06:40:45.950Z,1002.17
2022-08-07T06:42:02.477Z,1002.14
2022-08-07T06:42:46.635Z,1002.22
2022-08-07T06:43:46.526Z,1002.12
2022-08-07T06:44:44.607Z,1002.21
2022-08-07T06:45:44.836Z,1002.20
2022-08-07T06:46:43.596Z,1002.17
2022-08-07T06:47:44.588Z,1002.17
2022-08-07T06:48:44.804Z,1002.12
2022-08-07T06:49:52.116Z,1002.12
2022-08-07T06:50:47.845Z,1002.12
2022-08-07T06:51:49.943Z,1002.14
2022-08-07T06:52:45.197Z,1002.10
2022-08-07T06:55:28.773Z,1002.08
2022-08-07T06:55:31.492Z,1002.08
2022-08-07T06:55:53.396Z,1002.11
2022-08-07T06:56:48.622Z,1002.14
2022-08-07T06:57:49.930Z,1002.09
2022-08-07T07:00:12.200Z,1002.02
2022-08-07T07:00:12.531Z,1002.10
2022-08-07T07:00:44.474Z,1002.07
2022-08-07T07:01:48.662Z,1002.03
2022-08-07T07:02:54.553Z,1002.01
2022-08-07T07:03:48.157Z,1002.04
2022-08-07T07:04:43.631Z,1001.99
2022-08-07T07:06:05.453Z,1002.04
2022-08-07T07:07:00.474Z,1002.00
2022-08-07T07:07:59.816Z,1001.96
2022-08-07T07:08:46.656Z,1001.99
2022-08-07T07:09:43.409Z,1001.98
2022-08-07T07:10:47.386Z,1001.98
2022-08-07T07:12:08.867Z,1002.01
2022-08-07T07:12:48.935Z,1002.02
2022-08-07T07:13:58.654Z,1002.00
2022-08-07T07:14:44.363Z,1002.02
2022-08-07T07:15:43.426Z,1001.94
2022-08-07T07:16:49.749Z,1001.92
2022-08-07T07:17:45.443Z,1001.95
2022-08-07T07:18:48.190Z,1001.95
2022-08-07T07:19:57.068Z,1001.96
2022-08-07T07:20:44.380Z,1001.95
2022-08-07T07:22:05.039Z,1001.94
2022-08-07T07:24:05.386Z,1001.89
2022-08-07T07:24:08.570Z,1001.89
2022-08-07T07:24:57.061Z,1001.90
2022-08-07T07:26:33.003Z,1001.94
2022-08-07T07:26:51.792Z,1001.90
2022-08-07T07:28:02.212Z,1001.97
2022-08-07T07:29:39.180Z,1001.96
2022-08-07T07:30:08.772Z,1001.99
2022-08-07T07:30:44.240Z,1001.90
2022-08-07T07:31:44.527Z,1001.93
2022-08-07T07:32:43.221Z,1001.87
2022-08-07T07:33:43.222Z,1001.84
2022-08-07T07:34:44.219Z,1001.88
2022-08-07T07:35:44.036Z,1001.91
2022-08-07T07:36:44.188Z,1001.93
2022-08-07T07:37:45.497Z,1001.83
2022-08-07T07:38:46.143Z,1001.84
2022-08-07T07:39:52.262Z,1001.87
2022-08-07T07:40:44.193Z,1001.84
2022-08-07T07:41:50.816Z,1001.88
2022-08-07T07:42:47.088Z,1001.86
2022-08-07T07:43:47.796Z,1001.91
2022-08-07T07:44:45.045Z,1001.90
2022-08-07T07:46:38.022Z,1001.86
2022-08-07T07:46:55.640Z,1001.85
2022-08-07T07:47:52.720Z,1001.79
2022-08-07T07:48:45.526Z,1001.79
2022-08-07T07:50:34.944Z,1001.76
2022-08-07T07:50:44.081Z,1001.74
2022-08-07T07:51:58.270Z,1001.79
2022-08-07T07:52:44.046Z,1001.73
2022-08-07T07:53:52.035Z,1001.79
2022-08-07T07:54:50.839Z,1001.76
2022-08-07T07:55:45.734Z,1001.84
2022-08-07T07:56:44.041Z,1001.73
2022-08-07T07:57:52.223Z,1001.72
2022-08-07T07:58:44.004Z,1001.76
2022-08-07T07:59:52.574Z,1001.72
2022-08-07T08:00:47.803Z,1001.75
2022-08-07T08:02:02.379Z,1001.69
2022-08-07T08:03:05.799Z,1001.58
2022-08-07T08:04:10.990Z,1001.57
2022-08-07T08:04:44.097Z,1001.63
2022-08-07T08:05:54.833Z,1001.58
2022-08-07T08:06:52.189Z,1001.63
2022-08-07T08:07:59.976Z,1001.64
2022-08-07T08:08:44.923Z,1001.64
2022-08-07T08:09:52.343Z,1001.62
2022-08-07T08:10:43.909Z,1001.64
2022-08-07T08:11:59.834Z,1001.69
2022-08-07T08:12:52.252Z,1001.60
2022-08-07T08:13:54.130Z,1001.59
2022-08-07T08:14:43.879Z,1001.62
2022-08-07T08:15:58.046Z,1001.61
2022-08-07T08:16:50.474Z,1001.67
2022-08-07T08:17:57.097Z,1001.59
2022-08-07T08:18:45.154Z,1001.62
2022-08-07T08:20:17.276Z,1001.66
2022-08-07T08:20:43.826Z,1001.55
2022-08-07T08:22:00.554Z,1001.50
2022-08-07T08:22:54.107Z,1001.50
2022-08-07T08:23:43.821Z,1001.50
2022-08-07T08:24:45.305Z,1001.51
2022-08-07T08:25:49.455Z,1001.47
2022-08-07T08:26:43.807Z,1001.57
2022-08-07T08:27:43.975Z,1001.57
2022-08-07T08:28:45.109Z,1001.58
2022-08-07T08:29:54.201Z,1001.54
2022-08-07T08:30:50.888Z,1001.51
2022-08-07T08:31:59.038Z,1001.43
2022-08-07T08:32:48.443Z,1001.48
2022-08-07T08:33:48.972Z,1001.47
2022-08-07T08:34:44.957Z,1001.44
2022-08-07T08:35:47.103Z,1001.50
2022-08-07T08:36:46.298Z,1001.45
2022-08-07T08:38:01.579Z,1001.46
2022-08-07T08:38:44.626Z,1001.46
2022-08-07T08:39:55.084Z,1001.44
2022-08-07T08:40:43.908Z,1001.42
2022-08-07T08:41:58.234Z,1001.42
2022-08-07T08:42:43.660Z,1001.39
2022-08-07T08:43:43.327Z,1001.34
2022-08-07T08:44:44.485Z,1001.39
2022-08-07T08:45:59.261Z,1001.38
2022-08-07T08:46:44.948Z,1001.39
2022-08-07T08:47:52.784Z,1001.40
2022-08-07T08:48:43.613Z,1001.45
2022-08-07T08:49:46.833Z,1001.35
2022-08-07T08:50:43.597Z,1001.31
2022-08-07T08:52:13.119Z,1001.32
2022-08-07T08:52:54.205Z,1001.27
2022-08-07T08:53:43.567Z,1001.38
2022-08-07T08:54:42.572Z,1001.33
2022-08-07T08:55:55.309Z,1001.27
2022-08-07T08:56:47.517Z,1001.30
2022-08-07T08:57:42.540Z,1001.25
2022-08-07T08:58:42.531Z,1001.20
2022-08-07T08:59:48.274Z,1001.18
2022-08-07T09:00:48.622Z,1001.17
2022-08-07T09:01:46.609Z,1001.22
2022-08-07T09:02:42.634Z,1001.25
2022-08-07T09:03:48.094Z,1001.20
2022-08-07T09:04:43.490Z,1001.19
2022-08-07T09:05:42.488Z,1001.18
2022-08-07T09:06:42.884Z,1001.15
2022-08-07T09:07:46.272Z,1001.20
2022-08-07T09:08:43.455Z,1001.22
2022-08-07T09:09:42.449Z,1001.19
2022-08-07T09:10:44.329Z,1001.18
2022-08-07T09:11:51.238Z,1001.18
2022-08-07T09:12:53.563Z,1001.18
2022-08-07T09:13:42.419Z,1001.17
2022-08-07T09:14:42.414Z,1001.13
2022-08-07T09:16:22.033Z,1001.12
2022-08-07T09:16:43.409Z,1001.11
2022-08-07T09:17:58.941Z,1001.16
2022-08-07T09:18:47.374Z,1001.16
2022-08-07T09:19:52.214Z,1001.07
2022-08-07T09:20:43.372Z,1001.06
2022-08-07T09:22:22.398Z,1001.11
2022-08-07T09:24:32.306Z,1001.06
2022-08-07T09:24:33.845Z,1001.07
2022-08-07T09:24:59.428Z,1001.11
2022-08-07T09:25:43.340Z,1001.11
2022-08-07T09:26:47.807Z,1001.11
2022-08-07T09:28:00.436Z,1001.07
2022-08-07T09:30:06.239Z,1001.12
2022-08-07T09:30:06.370Z,1001.11
2022-08-07T09:30:46.166Z,1001.14
2022-08-07T09:31:49.139Z,1001.08
2022-08-07T09:32:43.290Z,1001.03
2022-08-07T09:33:56.817Z,1000.96
2022-08-07T09:34:43.310Z,1001.05
2022-08-07T09:36:03.282Z,1001.11
2022-08-07T09:36:46.818Z,1000.98
2022-08-07T09:37:48.194Z,1001.03
2022-08-07T09:38:43.223Z,1001.03
2022-08-07T09:39:54.794Z,1001.01
2022-08-07T09:40:43.205Z,1000.97
2022-08-07T09:41:43.211Z,1000.94
2022-08-07T09:42:44.090Z,1000.91
2022-08-07T09:44:05.725Z,1000.88
2022-08-07T09:44:52.198Z,1000.82
2022-08-07T09:47:25.813Z,1000.84
2022-08-07T09:47:51.623Z,1000.87
2022-08-07T09:47:59.170Z,1000.81
2022-08-07T09:49:02.567Z,1000.85
2022-08-07T09:49:59.553Z,1000.82
2022-08-07T09:50:43.132Z,1000.81
2022-08-07T09:52:16.305Z,1000.83
2022-08-07T09:52:43.113Z,1000.81
2022-08-07T09:53:50.108Z,1000.74
2022-08-07T09:54:43.114Z,1000.70
2022-08-07T09:56:03.221Z,1000.72
2022-08-07T09:56:43.084Z,1000.66
2022-08-07T09:57:46.622Z,1000.71
2022-08-07T09:58:42.421Z,1000.71
2022-08-07T09:59:46.105Z,1000.68
2022-08-07T10:00:42.059Z,1000.61
2022-08-07T10:01:51.275Z,1000.65
2022-08-07T10:02:53.666Z,1000.63
2022-08-07T10:04:06.535Z,1000.69
2022-08-07T10:04:46.063Z,1000.76
2022-08-07T10:06:00.748Z,1000.71
2022-08-07T10:06:49.107Z,1000.61
2022-08-07T10:07:53.755Z,1000.57
2022-08-07T10:08:42.994Z,1000.50
2022-08-07T10:09:59.308Z,1000.54
2022-08-07T10:11:16.297Z,1000.58
2022-08-07T10:12:01.860Z,1000.50
2022-08-07T10:12:52.785Z,1000.54
2022-08-07T10:14:00.243Z,1000.46
2022-08-07T10:14:43.675Z,1000.47
2022-08-07T10:15:44.675Z,1000.45
2022-08-07T10:16:41.927Z,1000.40
2022-08-07T10:18:00.975Z,1000.43
2022-08-07T10:18:42.917Z,1000.37
2022-08-07T10:19:41.993Z,1000.45
2022-08-07T10:20:41.892Z,1000.41
2022-08-07T10:22:12.418Z,1000.39
2022-08-07T10:22:43.226Z,1000.45
2022-08-07T10:24:05.920Z,1000.38
2022-08-07T10:24:42.871Z,1000.36
2022-08-07T10:25:43.077Z,1000.33
2022-08-07T10:26:41.856Z,1000.25
2022-08-07T10:27:46.228Z,1000.31
2022-08-07T10:28:43.437Z,1000.27
2022-08-07T10:29:45.905Z,1000.29
2022-08-07T10:30:43.827Z,1000.21
2022-08-07T10:31:42.994Z,1000.40
2022-08-07T10:32:52.849Z,1000.20
2022-08-07T10:34:05.914Z,1000.18
2022-08-07T10:34:45.259Z,1000.25
2022-08-07T10:35:56.601Z,1000.24
2022-08-07T10:36:42.809Z,1000.28
2022-08-07T10:38:00.197Z,1000.25
2022-08-07T10:38:48.845Z,1000.19
2022-08-07T10:40:03.350Z,1000.22
2022-08-07T10:40:42.753Z,1000.23
2022-08-07T10:41:51.261Z,1000.16
2022-08-07T10:42:42.727Z,1000.15
2022-08-07T10:43:41.733Z,1000.09
2022-08-07T10:44:45.373Z,1000.10
2022-08-07T10:45:44.420Z,1000.12
2022-08-07T10:46:41.707Z,1000.04
2022-08-07T10:47:51.432Z,1000.01
2022-08-07T10:48:44.163Z,1000.02
2022-08-07T10:49:41.682Z,1000.03
2022-08-07T10:50:44.900Z,1000.07
2022-08-07T10:52:01.909Z,1000.02
2022-08-07T10:52:42.785Z,1000.06
2022-08-07T10:53:44.693Z,1000.04
2022-08-07T10:54:42.200Z,999.95
2022-08-07T10:55:42.638Z,999.98
2022-08-07T10:56:41.912Z,999.91
2022-08-07T10:57:41.631Z,999.93
2022-08-07T10:58:41.654Z,1000.01
2022-08-07T10:59:45.381Z,1000.00
2022-08-07T11:00:43.300Z,999.98
2022-08-07T11:01:51.999Z,999.94
2022-08-07T11:02:42.620Z,999.88
2022-08-07T11:03:52.740Z,999.89
2022-08-07T11:04:42.566Z,999.87
2022-08-07T11:05:50.982Z,999.92
2022-08-07T11:06:44.529Z,999.90
2022-08-07T11:08:00.297Z,999.88
2022-08-07T11:08:42.539Z,999.93
2022-08-07T11:10:09.318Z,999.90
2022-08-07T11:10:42.522Z,999.94
2022-08-07T11:11:42.773Z,999.91
2022-08-07T11:12:43.172Z,999.86
2022-08-07T11:14:44.339Z,999.91
2022-08-07T11:14:59.766Z,999.86
2022-08-07T11:15:42.504Z,999.79
2022-08-07T11:16:42.479Z,999.91
2022-08-07T11:17:44.324Z,999.76
2022-08-07T11:18:41.466Z,999.80
2022-08-07T11:19:41.489Z,999.75
2022-08-07T11:20:41.451Z,999.76
2022-08-07T11:21:43.094Z,999.68
2022-08-07T11:22:45.651Z,999.69
2022-08-07T11:23:41.427Z,999.76
2022-08-07T11:24:45.512Z,999.72
2022-08-07T11:25:48.265Z,999.78
2022-08-07T11:26:48.170Z,999.77
2022-08-07T11:28:03.036Z,999.75
2022-08-07T11:28:42.469Z,999.88
2022-08-07T11:29:47.254Z,999.76
2022-08-07T11:30:42.505Z,999.72
2022-08-07T11:31:41.363Z,999.71
2022-08-07T11:32:41.355Z,999.66
2022-08-07T11:33:54.385Z,999.63
2022-08-07T11:34:42.544Z,999.58
2022-08-07T11:35:59.855Z,999.60
2022-08-07T11:36:42.340Z,999.67
2022-08-07T11:38:10.278Z,999.72
2022-08-07T11:38:42.307Z,999.59
2022-08-07T11:40:00.138Z,999.56
2022-08-07T11:40:42.291Z,999.54
2022-08-07T11:42:01.922Z,999.64
2022-08-07T11:42:42.271Z,999.63
2022-08-07T11:44:11.346Z,999.56
2022-08-07T11:44:52.296Z,999.55
2022-08-07T11:45:53.450Z,999.52
2022-08-07T11:46:42.241Z,999.50
2022-08-07T11:47:58.912Z,999.47
2022-08-07T11:48:53.824Z,999.45
2022-08-07T11:50:11.313Z,999.43
2022-08-07T11:50:44.310Z,999.44
2022-08-07T11:51:45.054Z,999.45
2022-08-07T11:52:41.207Z,999.43
2022-08-07T11:53:43.232Z,999.42
2022-08-07T11:54:42.190Z,999.38
2022-08-07T11:56:15.705Z,999.39
2022-08-07T11:56:42.169Z,999.41
2022-08-07T11:58:00.690Z,999.41
2022-08-07T11:58:42.148Z,999.40
2022-08-07T12:00:12.127Z,999.34
2022-08-07T12:00:42.137Z,999.33
2022-08-07T12:02:00.060Z,999.35
2022-08-07T12:02:42.148Z,999.42
2022-08-07T12:03:45.319Z,999.37
2022-08-07T12:04:41.105Z,999.34
2022-08-07T12:05:49.110Z,999.33
2022-08-07T12:06:50.837Z,999.36
2022-08-07T12:07:42.233Z,999.36
2022-08-07T12:08:42.533Z,999.33
2022-08-07T12:09:41.103Z,999.27
2022-08-07T12:10:41.949Z,999.28